Time;durP1;ratioP1;P1;durP2;ratioP2;P2;SDS_P1;SDS_P2;PMS_P1;PMS_P2;Temp;Humidity;BMP_temperature;BMP_pressure;BME280_temperature;BME280_humidity;BME280_pressure;Samples;Min_cycle;Max_cycle;Signal;HPM_P1;HPM_P2
2023/08/07 00:01:46;;;;;;;;;;;;;;;27.71;37.25;99727.50;5095174;28;1137;-27
2023/08/07 00:04:11;;;;;;;;;;;;;;;27.90;36.90;99733.06;5095974;28;1074;-23
2023/08/07 00:06:37;;;;;;;;;;;;;;;27.57;37.14;99734.78;5095191;28;1074;-24
2023/08/07 00:09:03;;;;;;;;;;;;;;;27.67;37.67;99731.66;5096197;28;1038;-24
2023/08/07 00:11:28;;;;;;;;;;;;;;;27.84;36.94;99723.91;5096126;28;1905;-26
2023/08/07 00:13:54;;;;;;;;;;;;;;;27.71;36.91;99721.28;5096631;28;1158;-27
2023/08/07 00:16:19;;;;;;;;;;;;;;;27.69;37.32;99728.75;5096588;28;1063;-24
2023/08/07 00:18:45;;;;;;;;;;;;;;;27.80;36.92;99732.66;5095938;28;1130;-23
2023/08/07 00:21:11;;;;;;;;;;;;;;;27.81;37.21;99726.25;5096277;28;1150;-26
2023/08/07 00:23:36;;;;;;;;;;;;;;;27.71;37.03;99721.28;5095976;28;919;-24
2023/08/07 00:26:02;;;;;;;;;;;;;;;27.78;37.18;99718.56;5096065;28;1039;-24
2023/08/07 00:28:29;;;;;;;;;;;;;;;27.83;36.82;99716.03;5095762;28;1852;-25
2023/08/07 00:30:55;;;;;;;;;;;;;;;27.74;37.00;99713.56;5077578;28;1997;-25
2023/08/07 00:33:21;;;;;;;;;;;;;;;27.89;37.37;99708.94;5095748;28;1054;-27
2023/08/07 00:35:47;;;;;;;;;;;;;;;27.93;36.59;99708.31;5095487;28;1086;-25
2023/08/07 00:38:12;;;;;;;;;;;;;;;27.75;36.91;99709.84;5096125;28;1030;-23
2023/08/07 00:40:38;;;;;;;;;;;;;;;27.77;37.12;99712.31;5096147;28;1153;-25
2023/08/07 00:43:04;;;;;;;;;;;;;;;27.73;37.12;99730.81;5078232;28;1086;-23
2023/08/07 00:45:29;;;;;;;;;;;;;;;27.70;37.00;99727.72;5095643;28;1063;-26
2023/08/07 00:47:55;;;;;;;;;;;;;;;27.85;37.04;99732.88;5077405;28;891;-26
2023/08/07 00:50:21;;;;;;;;;;;;;;;27.65;36.89;99736.44;5077147;28;1914;-22
2023/08/07 00:52:46;;;;;;;;;;;;;;;27.67;37.33;99738.91;5095810;28;1022;-26
2023/08/07 00:55:12;;;;;;;;;;;;;;;27.71;37.70;99738.31;5095835;28;1038;-24
2023/08/07 00:57:37;;;;;;;;;;;;;;;27.82;38.04;99739.53;5078379;28;1162;-24
2023/08/07 01:00:03;;;;;;;;;;;;;;;27.71;37.68;99751.00;5067266;28;2386;-26
2023/08/07 01:02:29;;;;;;;;;;;;;;;27.70;37.72;99752.03;5095980;28;1166;-27
2023/08/07 01:04:54;;;;;;;;;;;;;;;27.73;37.42;99754.31;5096023;28;1162;-24
2023/08/07 01:07:20;;;;;;;;;;;;;;;27.62;37.71;99759.31;5095862;28;1046;-26
2023/08/07 01:09:45;;;;;;;;;;;;;;;27.59;37.52;99762.41;5095782;28;1073;-24
2023/08/07 01:12:22;;;;;;;;;;;;;;;27.69;37.71;99769.28;5074197;28;1910;-24
2023/08/07 01:15:10;;;;;;;;;;;;;;;27.66;37.78;99767.78;5096023;28;1244;-26
2023/08/07 01:17:35;;;;;;;;;;;;;;;27.60;38.10;99782.16;5098126;28;1067;-25
2023/08/07 01:20:01;;;;;;;;;;;;;;;27.70;38.04;99770.94;5099656;28;1166;-24
2023/08/07 01:22:27;;;;;;;;;;;;;;;27.79;37.62;99772.41;5099370;28;1133;-23
2023/08/07 01:24:53;;;;;;;;;;;;;;;27.67;37.19;99776.72;5099388;28;861;-26
2023/08/07 01:27:18;;;;;;;;;;;;;;;27.66;37.60;99775.91;5080824;28;1047;-26
2023/08/07 01:29:49;;;;;;;;;;;;;;;27.70;37.59;99784.44;5096121;28;2548;-25
2023/08/07 01:32:15;;;;;;;;;;;;;;;27.73;37.54;99787.56;5099304;28;1977;-25
2023/08/07 01:34:41;;;;;;;;;;;;;;;27.65;37.29;99786.91;5080966;28;1102;-23
2023/08/07 01:37:07;;;;;;;;;;;;;;;27.68;37.69;99803.56;5099692;28;1055;-28
2023/08/07 01:39:32;;;;;;;;;;;;;;;27.69;37.50;99805.25;5080924;28;998;-27
2023/08/07 01:42:00;;;;;;;;;;;;;;;27.67;37.42;99809.16;5081216;28;1044;-25
2023/08/07 01:44:26;;;;;;;;;;;;;;;27.67;37.53;99818.09;5081131;28;1126;-25
2023/08/07 01:46:51;;;;;;;;;;;;;;;27.74;37.49;99826.22;5080473;28;1070;-26
2023/08/07 01:49:17;;;;;;;;;;;;;;;27.61;37.06;99827.06;5099168;28;1090;-26
2023/08/07 01:51:43;;;;;;;;;;;;;;;27.57;37.94;99836.59;5099162;28;1921;-28
2023/08/07 01:54:08;;;;;;;;;;;;;;;27.65;38.00;99833.69;5099056;28;1097;-29
2023/08/07 01:56:34;;;;;;;;;;;;;;;27.58;37.10;99841.78;5098682;28;1066;-28
2023/08/07 01:58:59;;;;;;;;;;;;;;;27.46;37.85;99846.16;5074716;28;2401;-24
2023/08/07 02:01:25;;;;;;;;;;;;;;;27.61;37.51;99840.56;5094516;28;1058;-25
2023/08/07 02:03:50;;;;;;;;;;;;;;;27.60;37.40;99841.59;5080788;28;1284;-24
2023/08/07 02:06:16;;;;;;;;;;;;;;;27.60;37.25;99841.59;5098403;28;1083;-30
2023/08/07 02:08:42;;;;;;;;;;;;;;;27.47;38.17;99848.66;5098546;28;1010;-24
2023/08/07 02:11:07;;;;;;;;;;;;;;;27.62;37.85;99851.16;5098139;28;1967;-25
2023/08/07 02:13:33;;;;;;;;;;;;;;;27.56;37.30;99862.78;5098358;28;1049;-25
2023/08/07 02:15:59;;;;;;;;;;;;;;;27.45;37.36;99866.09;5079965;28;1399;-23
2023/08/07 02:18:25;;;;;;;;;;;;;;;27.55;37.93;99874.63;5098416;28;1159;-24
2023/08/07 02:20:51;;;;;;;;;;;;;;;27.59;38.10;99878.56;5098468;28;1114;-23
2023/08/07 02:23:16;;;;;;;;;;;;;;;27.59;38.22;99881.25;5098160;28;967;-24
2023/08/07 02:25:42;;;;;;;;;;;;;;;27.54;37.86;99880.25;5098218;28;995;-24
2023/08/07 02:28:07;;;;;;;;;;;;;;;27.55;38.04;99880.03;5079269;28;1107;-24
2023/08/07 02:30:33;;;;;;;;;;;;;;;27.57;38.06;99887.94;5079447;28;2525;-24
2023/08/07 02:32:59;;;;;;;;;;;;;;;27.48;38.40;99880.03;5079911;28;1027;-26
2023/08/07 02:35:24;;;;;;;;;;;;;;;27.57;37.81;99887.94;5098051;28;1173;-24
2023/08/07 02:37:50;;;;;;;;;;;;;;;27.58;37.69;99882.31;5098079;28;1007;-26
2023/08/07 02:40:17;;;;;;;;;;;;;;;27.51;37.76;99898.50;5098049;28;1074;-25
2023/08/07 02:42:43;;;;;;;;;;;;;;;27.56;37.74;99908.69;5080141;28;1143;-26
2023/08/07 02:45:08;;;;;;;;;;;;;;;27.61;37.81;99900.81;5079521;28;1078;-24
2023/08/07 02:47:34;;;;;;;;;;;;;;;27.47;38.19;99899.97;5094439;28;1030;-24
2023/08/07 02:49:59;;;;;;;;;;;;;;;27.51;38.27;99909.31;5074986;28;1082;-23
2023/08/07 02:52:25;;;;;;;;;;;;;;;27.59;38.18;99923.69;5098061;28;1913;-27
2023/08/07 02:54:51;;;;;;;;;;;;;;;27.56;37.74;99929.50;5098008;28;1165;-26
2023/08/07 02:57:16;;;;;;;;;;;;;;;27.53;37.97;99916.41;5079107;28;1022;-26
2023/08/07 02:59:42;;;;;;;;;;;;;;;27.58;38.32;99920.13;5095214;28;2240;-24
2023/08/07 03:02:07;;;;;;;;;;;;;;;27.54;37.62;99912.66;5067942;28;1210;-25
2023/08/07 03:04:33;;;;;;;;;;;;;;;27.45;37.98;99912.00;5097644;28;1046;-24
2023/08/07 03:06:59;;;;;;;;;;;;;;;27.50;38.08;99914.94;5097429;28;1059;-24
2023/08/07 03:09:25;;;;;;;;;;;;;;;27.55;38.28;99909.75;5079151;28;1414;-25
2023/08/07 03:11:50;;;;;;;;;;;;;;;27.53;37.78;99921.81;5096971;28;1968;-30
2023/08/07 03:14:16;;;;;;;;;;;;;;;27.41;38.29;99924.28;5097301;28;1115;-26
2023/08/07 03:16:42;;;;;;;;;;;;;;;27.51;38.38;99919.28;5097575;28;1208;-25
2023/08/07 03:19:07;;;;;;;;;;;;;;;27.44;38.70;99924.72;5097202;28;1113;-24
2023/08/07 03:21:33;;;;;;;;;;;;;;;27.42;37.94;99932.19;5078610;28;1591;-26
2023/08/07 03:23:59;;;;;;;;;;;;;;;27.57;37.35;99932.00;5096947;28;999;-24
2023/08/07 03:26:24;;;;;;;;;;;;;;;27.46;37.54;99941.50;5078855;28;1380;-24
2023/08/07 03:28:50;;;;;;;;;;;;;;;27.34;37.92;99937.78;5078110;28;2416;-23
2023/08/07 03:31:16;;;;;;;;;;;;;;;27.42;38.05;99937.56;5097121;28;1898;-24
2023/08/07 03:33:42;;;;;;;;;;;;;;;27.39;39.46;99930.69;5078703;28;1546;-27
2023/08/07 03:36:09;;;;;;;;;;;;;;;27.41;39.51;99927.78;5096877;28;982;-24
2023/08/07 03:38:35;;;;;;;;;;;;;;;27.26;40.34;99936.06;5078984;28;1162;-23
2023/08/07 03:41:00;;;;;;;;;;;;;;;26.32;42.54;99936.44;5096084;28;994;-23
2023/08/07 03:43:27;;;;;;;;;;;;;;;25.97;43.55;99929.97;5078304;28;1268;-23
2023/08/07 03:45:58;;;;;;;;;;;;;;;25.82;43.86;99937.31;5078641;28;1168;-23
2023/08/07 03:48:24;;;;;;;;;;;;;;;25.56;44.66;99937.66;5096244;28;1103;-23
2023/08/07 03:50:50;;;;;;;;;;;;;;;25.92;44.18;99945.88;5076015;28;1898;-23
2023/08/07 03:53:17;;;;;;;;;;;;;;;25.96;41.98;99952.53;5093107;28;984;-22
2023/08/07 03:55:49;;;;;;;;;;;;;;;26.48;41.42;99952.31;5070914;28;1299;-22
2023/08/07 03:58:14;;;;;;;;;;;;;;;26.90;40.90;99951.50;5080617;28;1103;-23
2023/08/07 04:00:40;;;;;;;;;;;;;;;27.13;40.29;99950.38;5079162;28;2242;-22
2023/08/07 04:03:05;;;;;;;;;;;;;;;27.08;40.54;99950.97;5085949;28;1178;-22
2023/08/07 04:05:32;;;;;;;;;;;;;;;27.09;40.33;99949.94;5089467;28;1288;-23
2023/08/07 04:07:58;;;;;;;;;;;;;;;26.70;41.13;99954.09;5068048;28;1275;-22
2023/08/07 04:10:24;;;;;;;;;;;;;;;26.15;38.81;99945.66;5062456;28;1901;-22
2023/08/07 04:12:49;;;;;;;;;;;;;;;26.65;39.59;99944.75;5075625;28;968;-25
2023/08/07 04:15:15;;;;;;;;;;;;;;;26.76;40.13;99951.44;5076263;28;1053;-24
2023/08/07 04:17:41;;;;;;;;;;;;;;;27.10;39.42;99940.81;5061008;28;1241;-25
2023/08/07 04:20:08;;;;;;;;;;;;;;;27.25;38.62;99947.91;5068359;28;1147;-23
2023/08/07 04:22:34;;;;;;;;;;;;;;;27.33;38.80;99938.78;5087132;28;1109;-25
2023/08/07 04:24:59;;;;;;;;;;;;;;;27.45;38.77;99947.97;5078468;28;990;-23
2023/08/07 04:27:26;;;;;;;;;;;;;;;27.40;38.48;99942.34;5086803;28;1038;-24
2023/08/07 04:29:51;;;;;;;;;;;;;;;27.46;38.68;99943.41;5073811;28;1836;-26
2023/08/07 04:32:17;;;;;;;;;;;;;;;27.32;38.79;99942.53;5069772;28;1906;-23
2023/08/07 04:34:43;;;;;;;;;;;;;;;27.31;38.65;99938.19;5077255;28;1227;-24
2023/08/07 04:37:08;;;;;;;;;;;;;;;27.51;38.33;99939.03;5089282;28;2564;-24
2023/08/07 04:39:35;;;;;;;;;;;;;;;27.53;38.21;99943.41;5080901;28;1305;-25
2023/08/07 04:42:01;;;;;;;;;;;;;;;27.66;37.70;99956.91;5095705;28;993;-26
2023/08/07 04:44:26;;;;;;;;;;;;;;;27.50;38.13;99944.66;5077759;28;1134;-26
2023/08/07 04:46:52;;;;;;;;;;;;;;;27.42;37.85;99942.97;5076204;28;1277;-23
2023/08/07 04:49:17;;;;;;;;;;;;;;;26.06;40.96;99943.31;5076418;28;1016;-25
2023/08/07 04:51:43;;;;;;;;;;;;;;;26.14;40.30;99943.97;5077518;28;1906;-28
2023/08/07 04:54:09;;;;;;;;;;;;;;;26.39;39.43;99948.94;5079857;28;1078;-24
2023/08/07 04:56:34;;;;;;;;;;;;;;;26.40;39.74;99941.69;5080110;28;1127;-25
2023/08/07 04:59:01;;;;;;;;;;;;;;;26.28;39.85;99944.91;5088374;28;1055;-27
2023/08/07 05:01:27;;;;;;;;;;;;;;;26.44;39.38;99945.69;5082765;28;1351;-24
2023/08/07 05:03:52;;;;;;;;;;;;;;;26.16;39.91;99941.09;5096861;28;966;-24
2023/08/07 05:06:19;;;;;;;;;;;;;;;25.92;40.57;99930.53;5098730;28;1149;-25
2023/08/07 05:08:44;;;;;;;;;;;;;;;26.32;39.30;99941.81;5098867;28;974;-27
2023/08/07 05:11:10;;;;;;;;;;;;;;;26.99;37.74;99941.38;5099450;28;1898;-25
2023/08/07 05:13:35;;;;;;;;;;;;;;;27.31;37.36;99948.97;5080457;28;1202;-27
2023/08/07 05:16:01;;;;;;;;;;;;;;;27.37;37.39;99954.41;5099714;28;1126;-25
2023/08/07 05:18:26;;;;;;;;;;;;;;;27.56;37.17;99975.41;5095965;28;1154;-27
2023/08/07 05:20:52;;;;;;;;;;;;;;;27.58;37.52;99968.75;5099152;28;1190;-27
2023/08/07 05:23:17;;;;;;;;;;;;;;;27.63;37.00;99982.50;5096947;28;1110;-24
2023/08/07 05:25:47;;;;;;;;;;;;;;;27.50;37.37;99990.56;5099125;28;879;-25
2023/08/07 05:28:12;;;;;;;;;;;;;;;27.47;37.73;99996.38;5098229;28;1142;-25
2023/08/07 05:30:38;;;;;;;;;;;;;;;27.37;37.93;99994.91;5099623;28;1906;-25
2023/08/07 05:33:03;;;;;;;;;;;;;;;27.57;37.23;99998.69;5085562;28;1049;-25
2023/08/07 05:35:29;;;;;;;;;;;;;;;27.63;37.24;99989.75;5097277;28;1023;-28
2023/08/07 05:37:54;;;;;;;;;;;;;;;27.76;37.06;99986.25;5092642;28;995;-30
2023/08/07 05:40:20;;;;;;;;;;;;;;;27.74;36.61;99985.66;5092755;28;1014;-25
2023/08/07 05:42:46;;;;;;;;;;;;;;;27.71;36.75;99984.19;5092792;28;1181;-27
2023/08/07 05:45:11;;;;;;;;;;;;;;;27.72;36.30;99985.88;5078749;28;1057;-25
2023/08/07 05:47:37;;;;;;;;;;;;;;;27.44;36.59;99983.28;5078641;28;1063;-26
2023/08/07 05:50:03;;;;;;;;;;;;;;;27.68;35.71;99981.03;5079053;28;998;-25
2023/08/07 05:52:28;;;;;;;;;;;;;;;27.53;36.03;99987.44;5089302;28;1993;-25
2023/08/07 05:54:54;;;;;;;;;;;;;;;27.83;34.67;100005.19;5099178;28;1054;-28
2023/08/07 05:57:19;;;;;;;;;;;;;;;27.73;35.57;100011.00;5084696;28;1018;-27
2023/08/07 05:59:45;;;;;;;;;;;;;;;27.62;36.91;99998.91;5083890;28;1165;-25
2023/08/07 06:02:11;;;;;;;;;;;;;;;27.92;36.24;100030.16;5087137;28;1336;-31
2023/08/07 06:04:37;;;;;;;;;;;;;;;27.93;36.28;100026.41;5097206;28;1035;-25
2023/08/07 06:07:02;;;;;;;;;;;;;;;27.90;35.89;100016.84;5084255;28;1105;-26
2023/08/07 06:09:28;;;;;;;;;;;;;;;27.69;36.47;100029.53;5088668;28;1095;-26
2023/08/07 06:11:53;;;;;;;;;;;;;;;27.66;36.45;100019.06;5078147;28;1922;-26
2023/08/07 06:14:19;;;;;;;;;;;;;;;27.63;35.35;100020.31;5093040;28;1253;-28
2023/08/07 06:16:45;;;;;;;;;;;;;;;28.01;34.73;100010.00;5097366;28;1340;-26
2023/08/07 06:19:10;;;;;;;;;;;;;;;28.14;34.90;100025.41;5094660;28;1170;-25
2023/08/07 06:21:36;;;;;;;;;;;;;;;28.34;34.49;100033.53;5096501;28;1182;-24
2023/08/07 06:24:02;;;;;;;;;;;;;;;28.42;33.73;100029.78;5090504;28;1265;-25
2023/08/07 06:26:28;;;;;;;;;;;;;;;28.22;34.36;100027.06;5080990;28;920;-28
2023/08/07 06:28:53;;;;;;;;;;;;;;;28.28;34.02;100031.63;5094399;28;1119;-26
2023/08/07 06:31:19;;;;;;;;;;;;;;;28.24;34.63;100036.63;5098025;28;1996;-27
2023/08/07 06:33:45;;;;;;;;;;;;;;;28.18;34.74;100026.63;5091964;28;1118;-28
2023/08/07 06:36:10;;;;;;;;;;;;;;;28.27;34.10;100035.38;5097190;28;1220;-25
2023/08/07 06:38:36;;;;;;;;;;;;;;;28.37;34.02;100029.59;5093249;28;1260;-29
2023/08/07 06:41:01;;;;;;;;;;;;;;;28.39;33.77;100029.38;5097366;28;1023;-26
2023/08/07 06:43:27;;;;;;;;;;;;;;;28.40;33.92;100041.84;5088976;28;1157;-27
2023/08/07 06:45:53;;;;;;;;;;;;;;;28.31;34.60;100036.63;5097484;28;1237;-28
2023/08/07 06:48:19;;;;;;;;;;;;;;;28.09;34.86;100039.53;5094032;28;1261;-25
2023/08/07 06:50:46;;;;;;;;;;;;;;;28.15;35.15;100051.41;5092390;28;1910;-25
2023/08/07 06:53:11;;;;;;;;;;;;;;;28.15;34.95;100051.41;5096458;28;1200;-27
2023/08/07 06:55:37;;;;;;;;;;;;;;;28.19;35.04;100049.13;5096587;28;1380;-28
2023/08/07 06:58:03;;;;;;;;;;;;;;;28.37;34.67;100064.75;5091437;28;1110;-30
2023/08/07 07:00:28;;;;;;;;;;;;;;;28.39;35.00;100062.69;5097328;28;1343;-28
2023/08/07 07:02:54;;;;;;;;;;;;;;;28.20;34.78;100067.00;5088841;28;1312;-27
2023/08/07 07:05:19;;;;;;;;;;;;;;;28.34;34.90;100070.56;5066531;28;1157;-27
2023/08/07 07:07:45;;;;;;;;;;;;;;;28.35;34.96;100070.38;5094523;28;1252;-25
2023/08/07 07:10:10;;;;;;;;;;;;;;;28.44;34.44;100065.59;5098022;28;1102;-27
2023/08/07 07:12:36;;;;;;;;;;;;;;;28.42;34.52;100066.81;5093485;28;1906;-27
2023/08/07 07:15:02;;;;;;;;;;;;;;;28.54;34.47;100065.16;5090976;28;1085;-26
2023/08/07 07:17:27;;;;;;;;;;;;;;;28.39;35.22;100056.44;5076922;28;1344;-27
2023/08/07 07:19:53;;;;;;;;;;;;;;;28.63;34.64;100062.25;5087569;28;1510;-25
2023/08/07 07:22:19;;;;;;;;;;;;;;;28.40;35.12;100069.75;5096487;28;1311;-25
2023/08/07 07:24:44;;;;;;;;;;;;;;;28.35;35.31;100064.13;5095058;28;1214;-31
2023/08/07 07:27:10;;;;;;;;;;;;;;;28.38;35.20;100071.00;5087080;28;1388;-26
2023/08/07 07:29:35;;;;;;;;;;;;;;;28.21;35.87;100079.50;5083205;28;1098;-27
2023/08/07 07:32:01;;;;;;;;;;;;;;;28.33;35.36;100071.59;5096721;28;1913;-29
2023/08/07 07:34:26;;;;;;;;;;;;;;;27.80;36.27;100070.47;5080756;28;1126;-26
2023/08/07 07:36:53;;;;;;;;;;;;;;;28.01;34.98;100057.84;5087511;28;1180;-25
2023/08/07 07:39:19;;;;;;;;;;;;;;;28.14;35.64;100074.06;5092491;28;1166;-27
2023/08/07 07:41:45;;;;;;;;;;;;;;;28.25;35.69;100080.72;5096065;28;1269;-27
2023/08/07 07:44:10;;;;;;;;;;;;;;;28.09;35.92;100076.56;5089229;28;1283;-27
2023/08/07 07:46:36;;;;;;;;;;;;;;;28.29;35.67;100071.19;5083438;28;1026;-27
2023/08/07 07:49:03;;;;;;;;;;;;;;;28.23;35.83;100077.41;5082171;28;1154;-31
2023/08/07 07:51:29;;;;;;;;;;;;;;;28.31;34.93;100068.25;5079780;28;1894;-26
2023/08/07 07:53:54;;;;;;;;;;;;;;;28.27;35.45;100062.44;5093303;28;1126;-25
2023/08/07 07:56:20;;;;;;;;;;;;;;;28.61;34.60;100065.16;5096059;28;1134;-26
2023/08/07 07:58:45;;;;;;;;;;;;;;;28.28;36.02;100058.69;5091866;28;1189;-26
2023/08/07 08:01:11;;;;;;;;;;;;;;;28.30;35.96;100067.41;5095660;28;1331;-29
2023/08/07 08:03:37;;;;;;;;;;;;;;;28.27;35.51;100067.00;5086898;28;1027;-27
2023/08/07 08:06:03;;;;;;;;;;;;;;;28.10;35.51;100059.28;5096138;28;1324;-27
2023/08/07 08:08:28;;;;;;;;;;;;;;;28.24;35.39;100070.97;5066352;28;1000;-24
2023/08/07 08:10:54;;;;;;;;;;;;;;;28.46;34.86;100054.56;5083125;28;1906;-23
2023/08/07 08:13:20;;;;;;;;;;;;;;;28.36;35.07;100053.09;5093257;28;1047;-25
2023/08/07 08:15:45;;;;;;;;;;;;;;;28.52;34.67;100059.13;5094821;28;1213;-23
2023/08/07 08:18:11;;;;;;;;;;;;;;;28.38;35.54;100063.69;5089603;28;1367;-25
2023/08/07 08:20:37;;;;;;;;;;;;;;;28.76;35.00;100074.91;5089133;28;1273;-27
2023/08/07 08:23:02;;;;;;;;;;;;;;;28.73;35.01;100074.28;5091418;28;1340;-25
2023/08/07 08:25:28;;;;;;;;;;;;;;;28.82;34.90;100068.66;5090908;28;1162;-26
2023/08/07 08:27:54;;;;;;;;;;;;;;;28.65;35.12;100074.50;5095576;28;1007;-25
2023/08/07 08:30:19;;;;;;;;;;;;;;;28.42;35.35;100066.81;5096468;28;1031;-24
2023/08/07 08:32:45;;;;;;;;;;;;;;;28.56;34.87;100073.88;5087438;28;1974;-24
2023/08/07 08:35:11;;;;;;;;;;;;;;;28.34;35.56;100076.81;5093355;28;1142;-28
2023/08/07 08:37:37;;;;;;;;;;;;;;;28.41;34.80;100078.69;5095557;28;1098;-25
2023/08/07 08:40:02;;;;;;;;;;;;;;;28.39;35.28;100088.88;5085409;28;1063;-23
2023/08/07 08:42:28;;;;;;;;;;;;;;;28.27;36.09;100084.06;5082737;28;1039;-25
2023/08/07 08:44:56;;;;;;;;;;;;;;;28.45;34.85;100074.53;5088569;28;1118;-23
2023/08/07 08:47:22;;;;;;;;;;;;;;;28.45;32.50;100083.47;5076037;28;988;-25
2023/08/07 08:49:57;;;;;;;;;;;;;;;28.38;33.44;100089.94;5076403;28;1062;-24
2023/08/07 08:52:23;;;;;;;;;;;;;;;28.16;34.03;100087.38;5075279;28;1917;-26
2023/08/07 08:54:48;;;;;;;;;;;;;;;28.30;32.34;100067.41;5085172;28;1057;-26
2023/08/07 08:57:14;;;;;;;;;;;;;;;28.15;32.57;100074.88;5070593;28;1243;-25
2023/08/07 08:59:40;;;;;;;;;;;;;;;28.08;33.55;100088.41;5092675;28;1185;-26
2023/08/07 09:02:05;;;;;;;;;;;;;;;27.89;34.78;100069.25;5089137;28;1778;-24
2023/08/07 09:04:31;;;;;;;;;;;;;;;28.17;34.91;100081.78;5095544;28;1083;-30
2023/08/07 09:06:57;;;;;;;;;;;;;;;28.40;34.53;100068.91;5094672;28;1288;-24
2023/08/07 09:09:22;;;;;;;;;;;;;;;28.39;33.49;100073.50;5095241;28;1320;-24
2023/08/07 09:11:48;;;;;;;;;;;;;;;28.33;33.55;100077.00;5093634;28;1914;-24
2023/08/07 09:14:15;;;;;;;;;;;;;;;28.41;33.59;100079.50;5090628;28;1573;-22
2023/08/07 09:16:41;;;;;;;;;;;;;;;28.40;33.86;100090.53;5089999;28;1473;-23
2023/08/07 09:19:06;;;;;;;;;;;;;;;28.16;34.49;100087.38;5073900;28;1187;-24
2023/08/07 09:21:32;;;;;;;;;;;;;;;28.14;34.62;100081.34;5084284;28;1483;-27
2023/08/07 09:23:57;;;;;;;;;;;;;;;28.08;34.89;100086.53;5095589;28;1069;-25
2023/08/07 09:26:26;;;;;;;;;;;;;;;28.17;35.15;100091.75;5098972;28;1223;-27
2023/08/07 09:28:52;;;;;;;;;;;;;;;28.18;35.44;100086.13;5090890;28;1170;-28
2023/08/07 09:31:18;;;;;;;;;;;;;;;28.43;34.76;100087.41;5088091;28;1960;-24
2023/08/07 09:33:46;;;;;;;;;;;;;;;28.33;34.92;100080.56;5075277;28;1316;-25
2023/08/07 09:36:11;;;;;;;;;;;;;;;28.30;35.20;100075.53;5084861;28;1229;-25
2023/08/07 09:38:37;;;;;;;;;;;;;;;28.24;35.00;100093.41;5097368;28;1280;-23
2023/08/07 09:41:03;;;;;;;;;;;;;;;28.17;35.68;100089.88;5080906;28;1386;-24
2023/08/07 09:43:29;;;;;;;;;;;;;;;28.17;35.65;100087.19;5098510;28;1327;-26
2023/08/07 09:46:06;;;;;;;;;;;;;;;28.21;36.05;100093.81;5094992;28;1247;-27
2023/08/07 09:48:35;;;;;;;;;;;;;;;28.13;35.87;100094.03;5085895;28;1320;-24
2023/08/07 09:51:02;;;;;;;;;;;;;;;28.23;36.24;100099.88;5080640;28;1973;-26
2023/08/07 09:53:29;;;;;;;;;;;;;;;28.40;36.37;100088.66;5098205;28;1249;-24
2023/08/07 09:55:54;;;;;;;;;;;;;;;28.56;35.58;100087.41;5098724;28;1308;-27
2023/08/07 09:58:20;;;;;;;;;;;;;;;28.44;36.25;100089.94;5080217;28;1250;-24
2023/08/07 10:00:46;;;;;;;;;;;;;;;28.34;36.37;100086.81;5098904;28;1007;-28
2023/08/07 10:03:12;;;;;;;;;;;;;;;28.19;37.09;100084.28;5092591;28;1221;-23
2023/08/07 10:05:37;;;;;;;;;;;;;;;28.43;36.62;100084.72;5079241;28;1198;-25
2023/08/07 10:08:03;;;;;;;;;;;;;;;28.32;36.49;100092.41;5097787;28;1022;-23
2023/08/07 10:10:28;;;;;;;;;;;;;;;28.31;36.70;100090.72;5073524;28;1075;-27
2023/08/07 10:12:54;;;;;;;;;;;;;;;28.40;34.55;100095.94;5078565;28;1910;-23
2023/08/07 10:15:19;;;;;;;;;;;;;;;28.50;34.08;100087.41;5096484;28;1111;-23
2023/08/07 10:17:45;;;;;;;;;;;;;;;28.63;34.58;100094.72;5085306;28;1086;-27
2023/08/07 10:20:11;;;;;;;;;;;;;;;28.52;34.43;100094.28;5079894;28;1070;-23
2023/08/07 10:22:37;;;;;;;;;;;;;;;28.53;34.50;100078.91;5085455;28;1094;-27
2023/08/07 10:25:03;;;;;;;;;;;;;;;28.43;34.53;100087.41;5076129;28;1064;-26
2023/08/07 10:27:29;;;;;;;;;;;;;;;28.50;34.42;100080.13;5081237;28;1050;-24
2023/08/07 10:29:55;;;;;;;;;;;;;;;28.47;34.24;100077.84;5092322;28;1110;-26
2023/08/07 10:32:20;;;;;;;;;;;;;;;28.44;34.67;100086.38;5079470;28;1898;-25
2023/08/07 10:34:52;;;;;;;;;;;;;;;28.39;34.93;100091.59;5096436;28;1573;-27
2023/08/07 10:37:34;;;;;;;;;;;;;;;28.36;34.74;100098.25;5096944;28;1102;-26
2023/08/07 10:40:07;;;;;;;;;;;;;;;28.50;34.31;100088.25;5083475;28;1166;-24
2023/08/07 10:42:53;;;;;;;;;;;;;;;28.40;34.75;100080.56;5078023;28;1010;-26
2023/08/07 10:45:21;;;;;;;;;;;;;;;28.24;36.08;100103.41;5071171;28;1657;-27
2023/08/07 10:48:10;;;;;;;;;;;;;;;28.39;40.31;100087.03;5097505;28;979;-25
2023/08/07 10:50:45;;;;;;;;;;;;;;;28.30;40.94;100094.47;5076218;28;1976;-28
2023/08/07 10:53:12;;;;;;;;;;;;;;;28.26;40.65;100093.19;5060453;28;962;-29
2023/08/07 10:55:45;;;;;;;;;;;;;;;28.36;39.52;100095.56;5070970;28;1460;-27
2023/08/07 10:58:30;;;;;;;;;;;;;;;28.36;37.76;100074.72;5087256;28;1082;-27
2023/08/07 11:01:22;;;;;;;;;;;;;;;28.14;31.29;100082.19;5095825;28;1186;-26
2023/08/07 11:03:51;;;;;;;;;;;;;;;29.17;30.17;100095.47;5090642;28;1189;-23
2023/08/07 11:06:17;;;;;;;;;;;;;;;29.32;30.94;100099.78;5087070;28;1031;-21
2023/08/07 11:08:43;;;;;;;;;;;;;;;29.20;31.08;100099.63;5096921;28;1276;-26
2023/08/07 11:11:08;;;;;;;;;;;;;;;29.09;32.10;100106.53;5097032;28;1906;-26
2023/08/07 11:13:34;;;;;;;;;;;;;;;29.20;31.21;100107.75;5097121;28;1281;-23
2023/08/07 11:16:03;;;;;;;;;;;;;;;29.43;30.52;100107.25;5090448;28;1079;-24
2023/08/07 11:18:28;;;;;;;;;;;;;;;29.63;30.66;100109.06;5093610;28;1145;-26
2023/08/07 11:20:57;;;;;;;;;;;;;;;29.56;30.82;100098.22;5063551;28;1127;-25
2023/08/07 11:23:24;;;;;;;;;;;;;;;29.54;30.53;100103.06;5077280;28;1059;-25
2023/08/07 11:25:49;;;;;;;;;;;;;;;29.42;31.62;100094.75;5089043;28;1345;-24
2023/08/07 11:28:17;;;;;;;;;;;;;;;29.34;32.20;100092.28;5087471;28;1296;-23
2023/08/07 11:30:43;;;;;;;;;;;;;;;29.25;31.81;100088.13;5093019;28;1976;-24
2023/08/07 11:33:09;;;;;;;;;;;;;;;29.35;32.14;100093.94;5096537;28;1030;-27
2023/08/07 11:35:34;;;;;;;;;;;;;;;28.95;32.67;100086.75;5095837;28;1272;-22
2023/08/07 11:38:00;;;;;;;;;;;;;;;28.92;33.25;100095.28;5096150;28;1237;-22
2023/08/07 11:40:26;;;;;;;;;;;;;;;28.72;34.40;100088.88;5089492;28;1072;-25
2023/08/07 11:42:51;;;;;;;;;;;;;;;28.75;33.54;100094.88;5096448;28;1245;-24
2023/08/07 11:45:17;;;;;;;;;;;;;;;28.83;33.47;100100.09;5096012;28;1319;-24
2023/08/07 11:47:42;;;;;;;;;;;;;;;28.87;34.25;100089.66;5096020;28;1064;-24
2023/08/07 11:50:09;;;;;;;;;;;;;;;28.83;33.92;100095.50;5078478;28;1344;-23
2023/08/07 11:52:35;;;;;;;;;;;;;;;28.87;33.90;100084.25;5077454;28;1910;-24
2023/08/07 11:55:02;;;;;;;;;;;;;;;28.77;33.13;100068.44;5078162;28;1190;-24
2023/08/07 11:57:27;;;;;;;;;;;;;;;28.79;34.05;100074.50;5096475;28;1288;-25
2023/08/07 11:59:53;;;;;;;;;;;;;;;28.71;34.96;100083.69;5089279;28;1529;-26
2023/08/07 12:02:24;;;;;;;;;;;;;;;28.70;34.55;100071.16;5092794;28;1042;-23
2023/08/07 12:04:50;;;;;;;;;;;;;;;28.73;34.42;100085.13;5071499;28;1297;-26
2023/08/07 12:07:19;;;;;;;;;;;;;;;28.73;34.13;100077.00;5092183;28;1125;-24
2023/08/07 12:09:45;;;;;;;;;;;;;;;28.64;34.01;100083.69;5095860;28;1421;-24
2023/08/07 12:12:11;;;;;;;;;;;;;;;28.73;32.76;100054.50;5084866;28;1905;-24
2023/08/07 12:14:36;;;;;;;;;;;;;;;28.90;33.19;100091.94;5090096;28;987;-25
2023/08/07 12:17:03;;;;;;;;;;;;;;;28.79;33.45;100085.31;5085486;28;1327;-27
2023/08/07 12:19:42;;;;;;;;;;;;;;;28.79;34.28;100097.00;5085821;28;1207;-26
2023/08/07 12:22:09;;;;;;;;;;;;;;;28.63;34.29;100076.59;5095896;28;1166;-22
2023/08/07 12:24:36;;;;;;;;;;;;;;;28.69;33.15;100078.47;5096039;28;1481;-24
2023/08/07 12:27:02;;;;;;;;;;;;;;;28.79;31.46;100075.34;5096155;28;1261;-22
2023/08/07 12:29:29;;;;;;;;;;;;;;;28.70;31.66;100068.47;5091910;28;947;-25
2023/08/07 12:31:55;;;;;;;;;;;;;;;28.73;30.63;100060.75;5095834;28;1905;-23
2023/08/07 12:34:20;;;;;;;;;;;;;;;28.81;30.87;100065.09;5095960;28;1304;-23
2023/08/07 12:36:46;;;;;;;;;;;;;;;29.09;29.76;100069.44;5095558;28;1343;-23
2023/08/07 12:39:12;;;;;;;;;;;;;;;28.82;28.14;100057.81;5090484;28;1109;-24
2023/08/07 12:41:37;;;;;;;;;;;;;;;28.50;28.83;100065.78;5088038;28;920;-24
2023/08/07 12:44:03;;;;;;;;;;;;;;;28.68;29.56;100070.53;5086740;28;1153;-27
2023/08/07 12:46:29;;;;;;;;;;;;;;;28.71;29.96;100059.31;5093904;28;1347;-25
2023/08/07 12:48:54;;;;;;;;;;;;;;;28.76;29.66;100069.50;5095222;28;1431;-26